Time;durP1;ratioP1;P1;durP2;ratioP2;P2;SDS_P1;SDS_P2;PMS_P1;PMS_P2;Temp;Humidity;BMP_temperature;BMP_pressure;BME280_temperature;BME280_humidity;BME280_pressure;Samples;Min_cycle;Max_cycle;Signal;HPM_P1;HPM_P2
2023/08/29 00:00:59;;;;;;;2.50;2.30;;;;;;;;;;6217216;23;20405;-59
2023/08/29 00:03:28;;;;;;;2.80;2.60;;;;;;;;;;6217057;23;20389;-59
2023/08/29 00:06:00;;;;;;;2.23;2.13;;;;;;;;;;6217201;23;20454;-59
2023/08/29 00:08:27;;;;;;;2.67;2.47;;;;;;;;;;6227144;23;20393;-59
2023/08/29 00:10:56;;;;;;;3.50;2.20;;;;;;;;;;6217207;23;20794;-59
2023/08/29 00:13:22;;;;;;;2.57;2.40;;;;;;;;;;6216522;23;20519;-59
2023/08/29 00:15:49;;;;;;;2.53;2.40;;;;;;;;;;6217138;23;20476;-59
2023/08/29 00:18:19;;;;;;;3.60;2.37;;;;;;;;;;6217423;23;20488;-59
2023/08/29 00:20:46;;;;;;;2.60;2.50;;;;;;;;;;6216814;23;20467;-59
2023/08/29 00:23:12;;;;;;;2.47;2.27;;;;;;;;;;6216951;23;20404;-59
2023/08/29 00:25:39;;;;;;;2.50;2.30;;;;;;;;;;6217033;23;20401;-59
2023/08/29 00:28:07;;;;;;;5.33;3.70;;;;;;;;;;6217151;23;20489;-59
2023/08/29 00:30:34;;;;;;;3.60;2.27;;;;;;;;;;6216971;23;20404;-59
2023/08/29 00:33:01;;;;;;;4.00;2.50;;;;;;;;;;6216794;23;20501;-59
2023/08/29 00:35:29;;;;;;;2.20;2.10;;;;;;;;;;6217001;23;20405;-59
2023/08/29 00:37:57;;;;;;;2.50;2.30;;;;;;;;;;6216835;23;20492;-59
2023/08/29 00:40:23;;;;;;;2.87;2.67;;;;;;;;;;6216854;23;20753;-59
2023/08/29 00:42:50;;;;;;;2.30;2.20;;;;;;;;;;6216842;23;20433;-59
2023/08/29 00:45:17;;;;;;;2.23;2.13;;;;;;;;;;6217187;23;20437;-59
2023/08/29 00:47:44;;;;;;;2.40;2.30;;;;;;;;;;6216854;23;20479;-59
2023/08/29 00:50:11;;;;;;;2.30;2.20;;;;;;;;;;6216554;23;20515;-59
2023/08/29 00:52:39;;;;;;;2.37;2.17;;;;;;;;;;6216599;23;20752;-59
2023/08/29 00:55:07;;;;;;;2.60;2.40;;;;;;;;;;6216619;23;20491;-59
2023/08/29 00:57:34;;;;;;;2.60;2.40;;;;;;;;;;6216698;23;20777;-59
2023/08/29 01:00:01;;;;;;;2.50;2.40;;;;;;;;;;6216803;23;20493;-59
2023/08/29 01:02:28;;;;;;;3.50;2.50;;;;;;;;;;6216375;23;20496;-59
2023/08/29 01:04:55;;;;;;;2.73;2.53;;;;;;;;;;6216597;23;20492;-59
2023/08/29 01:07:22;;;;;;;2.30;2.20;;;;;;;;;;6216621;23;20441;-59
2023/08/29 01:09:50;;;;;;;2.40;2.30;;;;;;;;;;6216654;23;20433;-59
2023/08/29 01:12:18;;;;;;;2.33;2.20;;;;;;;;;;6216405;23;20461;-59
2023/08/29 01:14:48;;;;;;;2.50;2.40;;;;;;;;;;6216431;23;20406;-59
2023/08/29 01:17:17;;;;;;;2.30;2.20;;;;;;;;;;6226479;23;20397;-59
2023/08/29 01:19:48;;;;;;;2.00;1.90;;;;;;;;;;6216621;23;20496;-59
2023/08/29 01:22:21;;;;;;;2.47;2.27;;;;;;;;;;6226414;23;20767;-59
2023/08/29 01:24:51;;;;;;;2.60;2.37;;;;;;;;;;6226253;23;20397;-59
2023/08/29 01:27:20;;;;;;;2.93;2.30;;;;;;;;;;6216303;23;20488;-59
2023/08/29 01:29:47;;;;;;;2.27;2.17;;;;;;;;;;6216282;23;20439;-59
2023/08/29 01:32:15;;;;;;;2.50;2.40;;;;;;;;;;6216261;23;20527;-59
2023/08/29 01:34:43;;;;;;;2.60;2.47;;;;;;;;;;6216267;23;20440;-59
2023/08/29 01:37:10;;;;;;;2.47;2.37;;;;;;;;;;6216197;23;20408;-59
2023/08/29 01:39:37;;;;;;;2.47;2.27;;;;;;;;;;6215967;23;20489;-59
2023/08/29 01:42:04;;;;;;;3.20;2.90;;;;;;;;;;6216011;23;20495;-59
2023/08/29 01:44:32;;;;;;;2.50;2.40;;;;;;;;;;6216240;23;20408;-59
2023/08/29 01:46:59;;;;;;;2.90;2.70;;;;;;;;;;6216446;23;20500;-59
2023/08/29 01:49:27;;;;;;;2.60;2.40;;;;;;;;;;6216001;23;20467;-59
2023/08/29 01:51:54;;;;;;;3.20;2.83;;;;;;;;;;6226027;23;20472;-59
2023/08/29 01:54:20;;;;;;;4.30;2.27;;;;;;;;;;6216149;23;20444;-59
2023/08/29 01:56:47;;;;;;;1.90;1.80;;;;;;;;;;6216186;23;20433;-59
2023/08/29 01:59:14;;;;;;;2.63;2.43;;;;;;;;;;6216219;23;20499;-59
2023/08/29 02:01:43;;;;;;;2.00;1.90;;;;;;;;;;6216211;23;20484;-59
2023/08/29 02:04:10;;;;;;;2.33;2.17;;;;;;;;;;6215965;23;20409;-59
2023/08/29 02:06:36;;;;;;;3.73;2.50;;;;;;;;;;6216108;23;20404;-59
2023/08/29 02:09:04;;;;;;;2.80;2.60;;;;;;;;;;6216076;23;20764;-59
2023/08/29 02:11:31;;;;;;;2.60;2.40;;;;;;;;;;6216057;23;20722;-59
2023/08/29 02:13:58;;;;;;;2.70;2.50;;;;;;;;;;6215613;23;20523;-59
2023/08/29 02:16:25;;;;;;;2.63;2.53;;;;;;;;;;6215670;23;21021;-58
2023/08/29 02:18:53;;;;;;;3.53;2.67;;;;;;;;;;6215816;23;20413;-59
2023/08/29 02:21:20;;;;;;;3.13;2.83;;;;;;;;;;6215952;23;20492;-59
2023/08/29 02:23:47;;;;;;;2.20;2.10;;;;;;;;;;6215953;23;20480;-59
2023/08/29 02:26:14;;;;;;;2.97;2.87;;;;;;;;;;6216023;23;20492;-59
2023/08/29 02:28:41;;;;;;;2.90;2.70;;;;;;;;;;6215928;23;20786;-59
2023/08/29 02:31:09;;;;;;;3.40;2.77;;;;;;;;;;6215894;23;20428;-60
2023/08/29 02:33:37;;;;;;;2.80;2.70;;;;;;;;;;6216081;23;20528;-59
2023/08/29 02:36:06;;;;;;;3.07;2.77;;;;;;;;;;6215838;23;20409;-59
2023/08/29 02:38:33;;;;;;;2.50;2.40;;;;;;;;;;6215793;23;20409;-59
2023/08/29 02:41:00;;;;;;;2.90;2.70;;;;;;;;;;6215883;23;20462;-59
2023/08/29 02:43:28;;;;;;;2.70;2.60;;;;;;;;;;6215883;23;20787;-59
2023/08/29 02:45:55;;;;;;;3.27;2.97;;;;;;;;;;6215747;23;20495;-59
2023/08/29 02:48:22;;;;;;;3.60;3.30;;;;;;;;;;6216017;23;20432;-59
2023/08/29 02:50:49;;;;;;;5.47;3.00;;;;;;;;;;6215635;23;20433;-59
2023/08/29 02:53:18;;;;;;;5.73;3.07;;;;;;;;;;6215702;23;20471;-59
2023/08/29 02:55:45;;;;;;;3.60;3.40;;;;;;;;;;6215718;23;20409;-59
2023/08/29 02:58:12;;;;;;;2.77;2.57;;;;;;;;;;6216147;23;20428;-59
2023/08/29 03:00:39;;;;;;;2.93;2.83;;;;;;;;;;6215909;23;20560;-59
2023/08/29 03:03:06;;;;;;;2.93;2.73;;;;;;;;;;6215750;23;20496;-59
2023/08/29 03:05:33;;;;;;;2.60;2.40;;;;;;;;;;6215686;23;20463;-59
2023/08/29 03:08:01;;;;;;;3.87;2.80;;;;;;;;;;6215843;23;20459;-59
2023/08/29 03:10:30;;;;;;;3.20;3.00;;;;;;;;;;6215639;23;20555;-59
2023/08/29 03:12:57;;;;;;;7.43;2.70;;;;;;;;;;6215457;23;20825;-59
2023/08/29 03:15:24;;;;;;;3.00;2.57;;;;;;;;;;6215734;23;20491;-59
2023/08/29 03:17:51;;;;;;;3.53;3.20;;;;;;;;;;6215813;23;20400;-59
2023/08/29 03:20:18;;;;;;;3.03;2.83;;;;;;;;;;6215801;23;20721;-59
2023/08/29 03:22:46;;;;;;;3.13;2.90;;;;;;;;;;6215679;23;20433;-60
2023/08/29 03:25:13;;;;;;;3.73;3.30;;;;;;;;;;6216195;23;20432;-59
2023/08/29 03:27:41;;;;;;;5.47;3.27;;;;;;;;;;6217309;23;20912;-59
2023/08/29 03:30:08;;;;;;;3.30;3.10;;;;;;;;;;6217162;23;20781;-59
2023/08/29 03:32:35;;;;;;;4.80;3.77;;;;;;;;;;6216801;23;20480;-59
2023/08/29 03:35:02;;;;;;;3.80;3.50;;;;;;;;;;6216788;23;20919;-59
2023/08/29 03:37:29;;;;;;;3.00;2.90;;;;;;;;;;6216840;23;20488;-59
2023/08/29 03:39:56;;;;;;;3.33;3.03;;;;;;;;;;6217307;23;20483;-59
2023/08/29 03:42:23;;;;;;;3.33;2.97;;;;;;;;;;6217469;23;20401;-59
2023/08/29 03:44:51;;;;;;;3.47;3.27;;;;;;;;;;6217278;23;20778;-59
2023/08/29 03:47:18;;;;;;;2.60;2.40;;;;;;;;;;6217335;23;20492;-59
2023/08/29 03:49:45;;;;;;;2.90;2.80;;;;;;;;;;6217170;23;20435;-59
2023/08/29 03:52:12;;;;;;;3.07;2.87;;;;;;;;;;6217385;23;20784;-59
2023/08/29 03:54:39;;;;;;;2.77;2.57;;;;;;;;;;6217319;23;20528;-59
2023/08/29 03:57:06;;;;;;;4.43;3.50;;;;;;;;;;6217640;23;20433;-59
2023/08/29 03:59:33;;;;;;;4.80;3.73;;;;;;;;;;6217300;23;20431;-59
2023/08/29 04:02:06;;;;;;;3.60;3.30;;;;;;;;;;6217384;23;20786;-59
2023/08/29 04:04:32;;;;;;;3.93;3.50;;;;;;;;;;6227020;23;20476;-59
2023/08/29 04:07:00;;;;;;;3.40;3.20;;;;;;;;;;6217233;23;20400;-60
2023/08/29 04:09:27;;;;;;;3.13;2.93;;;;;;;;;;6216857;23;20960;-59
2023/08/29 04:11:54;;;;;;;3.97;3.67;;;;;;;;;;6217197;23;20405;-59
2023/08/29 04:14:20;;;;;;;3.67;3.20;;;;;;;;;;6217082;23;21019;-59
2023/08/29 04:16:48;;;;;;;3.60;3.40;;;;;;;;;;6217254;23;20463;-59
2023/08/29 04:19:16;;;;;;;3.70;3.50;;;;;;;;;;6217098;23;20401;-59
2023/08/29 04:21:43;;;;;;;3.47;3.13;;;;;;;;;;6217030;23;20452;-59
2023/08/29 04:24:11;;;;;;;5.13;3.40;;;;;;;;;;6217025;23;20695;-59
2023/08/29 04:26:38;;;;;;;3.10;2.90;;;;;;;;;;6216690;23;20949;-59
2023/08/29 04:29:05;;;;;;;3.13;3.03;;;;;;;;;;6217129;23;20408;-59
2023/08/29 04:31:32;;;;;;;4.30;3.90;;;;;;;;;;6217006;23;20488;-59
2023/08/29 04:33:59;;;;;;;4.63;3.83;;;;;;;;;;6216882;23;20523;-59
2023/08/29 04:36:27;;;;;;;4.37;4.00;;;;;;;;;;6217255;23;20409;-59
2023/08/29 04:38:54;;;;;;;4.00;3.70;;;;;;;;;;6216814;23;20499;-59
2023/08/29 04:41:21;;;;;;;5.67;5.20;;;;;;;;;;6216792;23;20414;-59
2023/08/29 04:43:48;;;;;;;3.30;3.10;;;;;;;;;;6216874;23;20484;-59
2023/08/29 04:46:15;;;;;;;4.00;3.80;;;;;;;;;;6216516;23;20951;-59
2023/08/29 04:48:42;;;;;;;4.10;3.80;;;;;;;;;;6216785;23;20433;-59
2023/08/29 04:51:09;;;;;;;5.27;3.67;;;;;;;;;;6216309;23;20436;-59
2023/08/29 04:53:38;;;;;;;4.43;3.73;;;;;;;;;;6216585;23;20815;-59
2023/08/29 04:56:05;;;;;;;4.97;4.53;;;;;;;;;;6216368;23;20406;-59
2023/08/29 04:58:32;;;;;;;3.73;3.50;;;;;;;;;;6216680;23;20463;-59
2023/08/29 05:01:00;;;;;;;3.63;3.33;;;;;;;;;;6216659;23;20405;-59
2023/08/29 05:03:28;;;;;;;3.70;3.40;;;;;;;;;;6216599;23;20397;-59
2023/08/29 05:05:55;;;;;;;4.20;3.90;;;;;;;;;;6216643;23;20401;-59
2023/08/29 05:08:22;;;;;;;4.40;4.00;;;;;;;;;;6216545;23;20441;-59
2023/08/29 05:10:50;;;;;;;3.93;3.63;;;;;;;;;;6216527;23;20484;-59
2023/08/29 05:13:17;;;;;;;3.97;3.67;;;;;;;;;;6216288;23;20487;-59
2023/08/29 05:15:44;;;;;;;4.37;4.07;;;;;;;;;;6216481;23;20405;-59
2023/08/29 05:18:11;;;;;;;4.10;3.53;;;;;;;;;;6216466;23;20492;-59
2023/08/29 05:20:38;;;;;;;3.67;3.47;;;;;;;;;;6216044;23;20908;-59
2023/08/29 05:23:05;;;;;;;4.80;4.40;;;;;;;;;;6216360;23;20467;-59
2023/08/29 05:25:32;;;;;;;3.83;3.53;;;;;;;;;;6216281;23;20436;-59
2023/08/29 05:28:01;;;;;;;4.00;3.70;;;;;;;;;;6216317;23;20726;-59
2023/08/29 05:30:30;;;;;;;4.10;3.90;;;;;;;;;;6216220;23;20440;-59
2023/08/29 05:32:57;;;;;;;4.30;4.00;;;;;;;;;;6216126;23;20407;-59
2023/08/29 05:35:24;;;;;;;4.53;4.13;;;;;;;;;;6216312;23;20432;-59
2023/08/29 05:37:51;;;;;;;5.30;4.90;;;;;;;;;;6216237;23;20433;-59
2023/08/29 05:40:17;;;;;;;5.77;5.33;;;;;;;;;;6216225;23;20786;-59
2023/08/29 05:42:44;;;;;;;6.00;5.60;;;;;;;;;;6216108;23;20523;-59
2023/08/29 05:45:13;;;;;;;6.70;5.67;;;;;;;;;;6216284;23;20496;-59
2023/08/29 05:47:40;;;;;;;5.60;5.20;;;;;;;;;;6216051;23;20770;-59
2023/08/29 05:50:08;;;;;;;6.27;5.80;;;;;;;;;;6215635;23;20516;-59
2023/08/29 05:52:35;;;;;;;6.10;5.70;;;;;;;;;;6215682;23;20409;-59
2023/08/29 05:55:02;;;;;;;6.73;6.20;;;;;;;;;;6216003;23;20527;-60
2023/08/29 05:57:29;;;;;;;6.20;5.23;;;;;;;;;;6216007;23;20455;-60
2023/08/29 05:59:56;;;;;;;7.17;6.47;;;;;;;;;;6215863;23;20679;-60
2023/08/29 06:02:24;;;;;;;6.93;6.33;;;;;;;;;;6216159;23;20880;-59
2023/08/29 06:04:51;;;;;;;7.80;6.50;;;;;;;;;;6215984;23;20433;-59
2023/08/29 06:07:19;;;;;;;6.13;5.63;;;;;;;;;;6216018;23;20436;-60
2023/08/29 06:09:46;;;;;;;6.83;6.00;;;;;;;;;;6216009;23;20412;-59
2023/08/29 06:12:13;;;;;;;7.53;6.10;;;;;;;;;;6216047;23;20790;-59
2023/08/29 06:14:41;;;;;;;5.90;5.50;;;;;;;;;;6216299;23;20975;-59
2023/08/29 06:17:07;;;;;;;6.33;5.80;;;;;;;;;;6215970;23;20497;-59
2023/08/29 06:19:36;;;;;;;6.63;6.03;;;;;;;;;;6214692;23;20488;-60
2023/08/29 06:22:03;;;;;;;6.40;5.73;;;;;;;;;;6215711;23;20491;-59
2023/08/29 06:24:30;;;;;;;7.17;6.57;;;;;;;;;;6215361;23;20405;-60
2023/08/29 06:26:57;;;;;;;6.20;5.80;;;;;;;;;;6215926;23;20443;-60
2023/08/29 06:29:24;;;;;;;6.73;6.23;;;;;;;;;;6215652;23;20471;-59
2023/08/29 06:31:51;;;;;;;9.07;6.50;;;;;;;;;;6215362;23;20492;-59
2023/08/29 06:34:18;;;;;;;6.40;6.00;;;;;;;;;;6215556;23;20441;-59
2023/08/29 06:36:46;;;;;;;6.80;6.30;;;;;;;;;;6215353;23;20409;-59
2023/08/29 06:39:13;;;;;;;8.87;8.07;;;;;;;;;;6214624;23;20440;-59
2023/08/29 06:41:40;;;;;;;6.97;6.40;;;;;;;;;;6211992;23;20488;-59
2023/08/29 06:44:07;;;;;;;7.30;6.73;;;;;;;;;;6212364;23;20800;-59
2023/08/29 06:46:34;;;;;;;7.00;6.50;;;;;;;;;;6212700;23;20488;-58
2023/08/29 06:49:01;;;;;;;8.83;8.20;;;;;;;;;;6214162;23;20793;-58
2023/08/29 06:51:28;;;;;;;9.37;8.60;;;;;;;;;;6214640;23;20512;-59
2023/08/29 06:53:56;;;;;;;7.87;7.33;;;;;;;;;;6215457;23;20516;-59
2023/08/29 06:56:23;;;;;;;8.10;7.40;;;;;;;;;;6215523;23;20491;-59
2023/08/29 06:58:51;;;;;;;8.67;7.97;;;;;;;;;;6215735;23;20748;-60
2023/08/29 07:01:18;;;;;;;9.50;8.30;;;;;;;;;;6217179;23;20476;-59
2023/08/29 07:03:45;;;;;;;8.10;7.50;;;;;;;;;;6217749;23;20451;-59
2023/08/29 07:06:12;;;;;;;8.60;7.90;;;;;;;;;;6217747;23;20455;-60
2023/08/29 07:08:39;;;;;;;9.40;8.70;;;;;;;;;;6217595;23;20484;-59
2023/08/29 07:11:08;;;;;;;7.50;6.90;;;;;;;;;;6217294;23;20402;-59
2023/08/29 07:13:34;;;;;;;7.83;7.27;;;;;;;;;;6217320;23;20496;-62
2023/08/29 07:16:04;;;;;;;8.40;7.80;;;;;;;;;;6217738;23;20496;-64
2023/08/29 07:18:32;;;;;;;9.50;8.60;;;;;;;;;;6216923;23;20404;-65
2023/08/29 07:20:59;;;;;;;10.47;9.37;;;;;;;;;;6217391;23;20772;-64
2023/08/29 07:23:28;;;;;;;10.13;9.33;;;;;;;;;;6214559;23;20412;-61
2023/08/29 07:25:55;;;;;;;10.47;9.33;;;;;;;;;;6214912;23;20409;-62
2023/08/29 07:28:23;;;;;;;10.37;8.53;;;;;;;;;;6216793;23;20777;-62
2023/08/29 07:30:51;;;;;;;9.67;8.83;;;;;;;;;;6217083;23;20516;-63
2023/08/29 07:33:18;;;;;;;10.60;9.63;;;;;;;;;;6216462;23;20738;-61
2023/08/29 07:35:46;;;;;;;10.73;9.83;;;;;;;;;;6216005;23;20447;-63
2023/08/29 07:38:13;;;;;;;9.60;8.70;;;;;;;;;;6216079;23;20512;-61
2023/08/29 07:40:41;;;;;;;9.80;9.10;;;;;;;;;;6214436;23;20512;-60
2023/08/29 07:43:09;;;;;;;13.33;10.27;;;;;;;;;;6214648;23;20404;-62
2023/08/29 07:45:37;;;;;;;9.13;8.33;;;;;;;;;;6217104;23;20437;-62
2023/08/29 07:48:04;;;;;;;9.57;8.77;;;;;;;;;;6214662;23;20504;-62
2023/08/29 07:50:32;;;;;;;11.67;7.93;;;;;;;;;;6216265;23;20802;-62
2023/08/29 07:52:59;;;;;;;7.23;6.57;;;;;;;;;;6217087;23;20405;-60
2023/08/29 07:55:26;;;;;;;8.37;7.70;;;;;;;;;;6217183;23;20795;-59
2023/08/29 07:57:53;;;;;;;7.57;6.90;;;;;;;;;;6217261;23;20487;-58
2023/08/29 08:00:21;;;;;;;7.70;7.10;;;;;;;;;;6216812;23;20889;-57
2023/08/29 08:02:49;;;;;;;6.50;6.10;;;;;;;;;;6217412;23;20412;-58
2023/08/29 08:05:17;;;;;;;6.40;5.80;;;;;;;;;;6215879;23;20753;-60
2023/08/29 08:07:44;;;;;;;7.63;6.77;;;;;;;;;;6215608;23;20493;-60
2023/08/29 08:10:11;;;;;;;6.80;6.00;;;;;;;;;;6216661;23;20496;-62
2023/08/29 08:12:39;;;;;;;7.43;6.73;;;;;;;;;;6215945;23;20496;-61
2023/08/29 08:15:06;;;;;;;6.80;6.30;;;;;;;;;;6216344;23;20496;-61
2023/08/29 08:17:33;;;;;;;5.70;5.30;;;;;;;;;;6215608;23;20443;-58
2023/08/29 08:20:06;;;;;;;5.83;5.33;;;;;;;;;;6216629;23;20440;-59
2023/08/29 08:22:33;;;;;;;5.93;5.50;;;;;;;;;;6226501;23;20400;-61
2023/08/29 08:25:00;;;;;;;5.43;5.03;;;;;;;;;;6215378;23;20491;-60
2023/08/29 08:27:27;;;;;;;7.13;5.80;;;;;;;;;;6216453;23;20499;-64
2023/08/29 08:29:54;;;;;;;5.33;5.00;;;;;;;;;;6216507;23;20413;-61
2023/08/29 08:32:21;;;;;;;7.30;5.40;;;;;;;;;;6216783;23;20405;-61
2023/08/29 08:34:48;;;;;;;4.97;4.57;;;;;;;;;;6216294;23;20855;-60
2023/08/29 08:37:16;;;;;;;4.50;4.10;;;;;;;;;;6216927;23;20432;-60
2023/08/29 08:39:43;;;;;;;4.47;4.20;;;;;;;;;;6216115;23;20443;-63
2023/08/29 08:42:11;;;;;;;4.30;4.10;;;;;;;;;;6214957;23;20444;-58
2023/08/29 08:44:39;;;;;;;4.40;4.10;;;;;;;;;;6216375;23;20436;-59
2023/08/29 08:47:06;;;;;;;5.83;4.30;;;;;;;;;;6216355;23;20963;-60
2023/08/29 08:49:33;;;;;;;3.87;3.67;;;;;;;;;;6216385;23;20425;-61
2023/08/29 08:52:01;;;;;;;4.00;3.70;;;;;;;;;;6226576;23;20476;-60
2023/08/29 08:54:29;;;;;;;4.67;4.37;;;;;;;;;;6216189;23;20469;-62
2023/08/29 08:56:57;;;;;;;4.73;4.30;;;;;;;;;;6216257;23;20444;-60
2023/08/29 08:59:24;;;;;;;4.40;3.87;;;;;;;;;;6216600;23;20409;-60
2023/08/29 09:01:51;;;;;;;3.17;2.97;;;;;;;;;;6216655;23;20432;-60
2023/08/29 09:04:19;;;;;;;3.10;2.90;;;;;;;;;;6216574;23;20405;-61
2023/08/29 09:06:46;;;;;;;2.70;2.60;;;;;;;;;;6215678;23;20440;-62
2023/08/29 09:09:16;;;;;;;3.03;2.83;;;;;;;;;;6216417;23;20896;-60
2023/08/29 09:11:44;;;;;;;3.00;2.87;;;;;;;;;;6216419;23;20726;-59
2023/08/29 09:14:11;;;;;;;3.17;2.87;;;;;;;;;;6216127;23;20444;-59
2023/08/29 09:16:38;;;;;;;3.80;3.60;;;;;;;;;;6216392;23;20437;-60
2023/08/29 09:19:06;;;;;;;4.20;3.80;;;;;;;;;;6216249;23;20405;-59
2023/08/29 09:21:33;;;;;;;3.87;3.57;;;;;;;;;;6216464;23;20487;-61
2023/08/29 09:24:00;;;;;;;3.90;3.60;;;;;;;;;;6216248;23;20405;-61
2023/08/29 09:26:31;;;;;;;4.10;3.90;;;;;;;;;;6216352;23;20420;-60
2023/08/29 09:28:59;;;;;;;4.70;3.13;;;;;;;;;;6226214;23;20741;-61
2023/08/29 09:31:26;;;;;;;3.70;3.50;;;;;;;;;;6216176;23;20432;-61
2023/08/29 09:33:53;;;;;;;3.37;3.17;;;;;;;;;;6215939;23;20417;-61
2023/08/29 09:36:21;;;;;;;4.83;3.00;;;;;;;;;;6216151;23;20519;-61
2023/08/29 09:38:48;;;;;;;2.80;2.70;;;;;;;;;;6216145;23;20416;-62
2023/08/29 09:41:19;;;;;;;3.60;2.33;;;;;;;;;;6216176;23;20484;-60
2023/08/29 09:43:49;;;;;;;2.43;2.30;;;;;;;;;;6225092;23;20428;-56
2023/08/29 09:46:22;;;;;;;2.30;2.20;;;;;;;;;;6216079;23;20492;-49
2023/08/29 09:48:55;;;;;;;3.00;2.10;;;;;;;;;;6225826;23;20421;-57
2023/08/29 09:51:22;;;;;;;2.40;2.20;;;;;;;;;;6216263;23;20433;-57
2023/08/29 09:53:49;;;;;;;2.20;2.10;;;;;;;;;;6216093;23;20484;-58
2023/08/29 09:56:17;;;;;;;2.10;2.00;;;;;;;;;;6216015;23;20473;-58
2023/08/29 09:58:44;;;;;;;2.17;2.07;;;;;;;;;;6215797;23;20443;-57
2023/08/29 10:01:12;;;;;;;2.07;1.97;;;;;;;;;;6216113;23;20487;-57
2023/08/29 10:03:40;;;;;;;2.13;2.03;;;;;;;;;;6216033;23;20496;-55
2023/08/29 10:06:08;;;;;;;2.27;2.07;;;;;;;;;;6215897;23;20405;-58
2023/08/29 10:08:39;;;;;;;1.73;1.63;;;;;;;;;;6215709;23;20436;-62
2023/08/29 10:11:07;;;;;;;3.40;2.03;;;;;;;;;;6225848;23;20480;-63
2023/08/29 10:13:36;;;;;;;2.30;2.20;;;;;;;;;;6215923;23;20433;-60
2023/08/29 10:16:04;;;;;;;1.83;1.73;;;;;;;;;;6215783;23;20471;-62
2023/08/29 10:18:32;;;;;;;2.80;2.10;;;;;;;;;;6216052;23;20437;-62
2023/08/29 10:21:00;;;;;;;2.90;1.80;;;;;;;;;;6215525;23;20492;-61
2023/08/29 10:23:28;;;;;;;2.20;2.10;;;;;;;;;;6215748;23;20491;-59
2023/08/29 10:25:55;;;;;;;2.20;2.10;;;;;;;;;;6215835;23;20500;-59
2023/08/29 10:28:23;;;;;;;2.10;2.00;;;;;;;;;;6215672;23;20488;-59
2023/08/29 10:30:51;;;;;;;2.10;2.00;;;;;;;;;;6215952;23;20402;-58
2023/08/29 10:33:19;;;;;;;2.40;2.30;;;;;;;;;;6215370;23;20915;-58
2023/08/29 10:35:48;;;;;;;2.87;2.57;;;;;;;;;;6215170;23;20800;-61
2023/08/29 10:38:18;;;;;;;2.27;2.07;;;;;;;;;;6215641;23;20412;-61
2023/08/29 10:40:46;;;;;;;2.30;1.73;;;;;;;;;;6215234;23;20907;-62
2023/08/29 10:43:19;;;;;;;2.10;1.90;;;;;;;;;;6215737;23;20484;-59
2023/08/29 10:45:50;;;;;;;2.30;2.00;;;;;;;;;;6215932;23;20444;-60
2023/08/29 10:48:18;;;;;;;1.93;1.83;;;;;;;;;;6215679;23;20721;-61
2023/08/29 10:50:47;;;;;;;1.97;1.77;;;;;;;;;;6215188;23;20429;-59
2023/08/29 10:53:19;;;;;;;1.53;1.43;;;;;;;;;;6215435;23;20457;-60
2023/08/29 10:55:59;;;;;;;1.53;1.33;;;;;;;;;;6225043;23;20936;-60
2023/08/29 10:58:34;;;;;;;1.90;1.80;;;;;;;;;;6225096;23;20895;-60
2023/08/29 11:01:00;;;;;;;1.50;1.40;;;;;;;;;;6215538;23;20721;-60
2023/08/29 11:03:46;;;;;;;1.60;1.50;;;;;;;;;;6215672;23;20439;-60
2023/08/29 11:06:14;;;;;;;3.23;1.80;;;;;;;;;;6215511;23;20433;-59
2023/08/29 11:08:42;;;;;;;1.70;1.60;;;;;;;;;;6215575;23;20405;-59
2023/08/29 11:11:13;;;;;;;1.40;1.30;;;;;;;;;;6215450;23;20443;-60
2023/08/29 11:13:54;;;;;;;1.93;1.40;;;;;;;;;;6225413;23;20425;-57
2023/08/29 11:16:21;;;;;;;5.90;1.30;;;;;;;;;;6225420;23;20432;-60
2023/08/29 11:18:48;;;;;;;1.63;1.53;;;;;;;;;;6215885;23;20455;-62
2023/08/29 11:21:17;;;;;;;1.47;1.27;;;;;;;;;;6215605;23;20497;-59
2023/08/29 11:23:45;;;;;;;1.33;1.23;;;;;;;;;;6215543;23;20416;-59
2023/08/29 11:26:12;;;;;;;1.07;1.00;;;;;;;;;;6215426;23;20405;-59
2023/08/29 11:28:40;;;;;;;1.13;1.03;;;;;;;;;;6215346;23;20464;-59
2023/08/29 11:31:07;;;;;;;1.27;1.00;;;;;;;;;;6215430;23;20443;-59
2023/08/29 11:33:35;;;;;;;1.27;1.17;;;;;;;;;;6215366;23;20405;-59
2023/08/29 11:36:02;;;;;;;1.40;1.30;;;;;;;;;;6215392;23;20476;-60
2023/08/29 11:38:30;;;;;;;1.20;1.10;;;;;;;;;;6215456;23;20475;-59
2023/08/29 11:40:59;;;;;;;1.97;1.27;;;;;;;;;;6215389;23;20416;-61
2023/08/29 11:43:26;;;;;;;1.17;1.07;;;;;;;;;;6215004;23;20492;-59
2023/08/29 11:45:54;;;;;;;1.40;1.10;;;;;;;;;;6215706;23;20435;-59
2023/08/29 11:48:28;;;;;;;1.30;1.00;;;;;;;;;;6217296;23;20405;-60
2023/08/29 11:53:58;;;;;;;1.43;1.10;;;;;;;;;;5583916;23;20882;-61
2023/08/29 11:56:29;;;;;;;1.07;0.97;;;;;;;;;;6217232;23;20532;-65
2023/08/29 11:59:00;;;;;;;1.30;1.20;;;;;;;;;;6227146;23;20476;-60
2023/08/29 12:01:27;;;;;;;1.30;1.00;;;;;;;;;;6222105;23;20777;-64
2023/08/29 12:03:54;;;;;;;1.47;1.30;;;;;;;;;;6217000;23;20484;-64
2023/08/29 12:06:26;;;;;;;1.10;1.00;;;;;;;;;;6216743;23;20980;-63
2023/08/29 12:08:53;;;;;;;1.53;1.00;;;;;;;;;;6227007;23;20741;-59
2023/08/29 12:11:21;;;;;;;1.33;1.00;;;;;;;;;;6217477;23;20491;-62
2023/08/29 12:14:07;;;;;;;2.10;1.40;;;;;;;;;;6216244;23;20486;-61
2023/08/29 12:16:34;;;;;;;1.83;1.23;;;;;;;;;;6225933;23;20439;-62
2023/08/29 12:19:08;;;;;;;1.40;1.30;;;;;;;;;;6216681;23;20830;-62
2023/08/29 12:21:36;;;;;;;1.90;1.80;;;;;;;;;;6216742;23;20492;-64
2023/08/29 12:24:10;;;;;;;1.50;1.40;;;;;;;;;;6216570;23;20424;-62
2023/08/29 12:26:37;;;;;;;1.50;1.40;;;;;;;;;;6226704;23;20408;-68
2023/08/29 12:29:05;;;;;;;1.73;1.33;;;;;;;;;;6216830;23;20433;-58
2023/08/29 12:31:32;;;;;;;1.90;1.80;;;;;;;;;;6216722;23;20492;-58
2023/08/29 12:33:59;;;;;;;1.90;1.80;;;;;;;;;;6216724;23;20405;-57
2023/08/29 12:36:26;;;;;;;1.80;1.70;;;;;;;;;;6216777;23;20548;-64
2023/08/29 12:38:53;;;;;;;3.10;1.97;;;;;;;;;;6216699;23;20951;-60
2023/08/29 12:41:21;;;;;;;7.10;1.57;;;;;;;;;;6216641;23;20436;-60
2023/08/29 12:43:48;;;;;;;1.90;1.80;;;;;;;;;;6216728;23;20756;-62
2023/08/29 12:46:16;;;;;;;1.80;1.70;;;;;;;;;;6216165;23;20492;-61
2023/08/29 12:48:43;;;;;;;2.00;1.70;;;;;;;;;;6216710;23;20483;-61
2023/08/29 12:51:10;;;;;;;2.00;1.90;;;;;;;;;;6216330;23;20448;-61
2023/08/29 12:53:37;;;;;;;1.83;1.73;;;;;;;;;;6216057;23;20732;-60
2023/08/29 12:56:04;;;;;;;2.90;2.13;;;;;;;;;;6216655;23;20516;-61
2023/08/29 12:58:31;;;;;;;1.80;1.70;;;;;;;;;;6216493;23;20803;-65
2023/08/29 13:00:58;;;;;;;1.70;1.60;;;;;;;;;;6216660;23;20488;-70
2023/08/29 13:03:26;;;;;;;1.80;1.70;;;;;;;;;;6216416;23;20488;-66
2023/08/29 13:05:54;;;;;;;1.93;1.83;;;;;;;;;;6216830;23;20496;-64
2023/08/29 13:08:21;;;;;;;1.90;1.80;;;;;;;;;;6216599;23;20896;-64
2023/08/29 13:10:48;;;;;;;2.17;2.07;;;;;;;;;;6216449;23;20484;-63
2023/08/29 13:13:15;;;;;;;2.00;1.90;;;;;;;;;;6216541;23;20447;-62
2023/08/29 13:15:42;;;;;;;1.87;1.77;;;;;;;;;;6216477;23;20488;-60
2023/08/29 13:18:09;;;;;;;2.00;1.90;;;;;;;;;;6216577;23;20405;-60
2023/08/29 13:20:37;;;;;;;2.13;2.03;;;;;;;;;;6216521;23;20405;-60
2023/08/29 13:23:05;;;;;;;2.43;2.33;;;;;;;;;;6216415;23;20467;-60
2023/08/29 13:25:32;;;;;;;5.37;2.27;;;;;;;;;;6216526;23;20492;-60
2023/08/29 13:27:59;;;;;;;3.10;1.80;;;;;;;;;;6216361;23;20433;-60
2023/08/29 13:30:26;;;;;;;2.20;2.10;;;;;;;;;;6216725;23;20437;-60
2023/08/29 13:32:53;;;;;;;1.93;1.83;;;;;;;;;;6216317;23;20496;-60
2023/08/29 13:35:20;;;;;;;2.37;2.17;;;;;;;;;;6216364;23;20437;-60
2023/08/29 13:37:48;;;;;;;1.93;1.83;;;;;;;;;;6216139;23;20847;-60
2023/08/29 13:40:16;;;;;;;2.60;2.50;;;;;;;;;;6216283;23;20789;-60
2023/08/29 13:42:43;;;;;;;2.33;2.13;;;;;;;;;;6216151;23;20904;-61
2023/08/29 13:45:10;;;;;;;2.30;2.17;;;;;;;;;;6216262;23;20401;-60
2023/08/29 13:47:37;;;;;;;2.47;2.37;;;;;;;;;;6216414;23;20436;-60
2023/08/29 13:50:04;;;;;;;2.13;1.80;;;;;;;;;;6216341;23;20955;-60
2023/08/29 13:52:31;;;;;;;2.13;2.00;;;;;;;;;;6215975;23;20432;-60
2023/08/29 13:54:59;;;;;;;2.70;2.50;;;;;;;;;;6225940;23;20725;-60
2023/08/29 13:57:26;;;;;;;2.17;2.07;;;;;;;;;;6215942;23;20440;-60
2023/08/29 13:59:53;;;;;;;2.00;1.90;;;;;;;;;;6215955;23;20401;-60
2023/08/29 14:02:20;;;;;;;2.30;2.10;;;;;;;;;;6215895;23;20489;-60
2023/08/29 14:04:47;;;;;;;1.90;1.80;;;;;;;;;;6216085;23;20412;-60
2023/08/29 14:07:15;;;;;;;2.10;2.00;;;;;;;;;;6216293;23;20412;-60
2023/08/29 14:09:42;;;;;;;1.80;1.70;;;;;;;;;;6215468;23;20397;-60
2023/08/29 14:12:11;;;;;;;2.30;2.20;;;;;;;;;;6215667;23;20488;-60
2023/08/29 14:14:38;;;;;;;2.13;2.03;;;;;;;;;;6215766;23;20480;-60
2023/08/29 14:17:05;;;;;;;2.07;1.97;;;;;;;;;;6215956;23;20436;-60
2023/08/29 14:19:32;;;;;;;1.90;1.80;;;;;;;;;;6215936;23;20416;-60
2023/08/29 14:21:59;;;;;;;1.97;1.87;;;;;;;;;;6216005;23;20437;-60
2023/08/29 14:24:26;;;;;;;1.83;1.73;;;;;;;;;;6215970;23;20492;-60
2023/08/29 14:26:53;;;;;;;1.83;1.73;;;;;;;;;;6216059;23;20438;-60
2023/08/29 14:29:21;;;;;;;2.10;2.00;;;;;;;;;;6215976;23;20500;-60
2023/08/29 14:31:48;;;;;;;2.03;1.93;;;;;;;;;;6215859;23;20473;-60
2023/08/29 14:34:15;;;;;;;2.03;1.93;;;;;;;;;;6216021;23;20742;-60
2023/08/29 14:36:43;;;;;;;2.20;1.97;;;;;;;;;;6215883;23;20455;-60
2023/08/29 14:39:10;;;;;;;2.20;2.10;;;;;;;;;;6216117;23;20401;-60
2023/08/29 14:41:37;;;;;;;2.00;1.90;;;;;;;;;;6215873;23;20721;-60
2023/08/29 14:44:04;;;;;;;2.30;2.20;;;;;;;;;;6215845;23;20405;-60
2023/08/29 14:46:32;;;;;;;2.80;2.60;;;;;;;;;;6215907;23;20724;-60
2023/08/29 14:48:59;;;;;;;2.50;2.40;;;;;;;;;;6216005;23;20790;-60